createdAt,value
2024-01-29T00:01:40.621Z,101129.56
2024-01-29T00:04:09.779Z,101119.06
2024-01-29T00:06:37.698Z,101121.25
2024-01-29T00:09:05.360Z,101120.81
2024-01-29T00:11:34.297Z,101121.19
2024-01-29T00:14:02.739Z,101122.22
2024-01-29T00:16:30.879Z,101128.44
2024-01-29T00:18:58.582Z,101125.69
2024-01-29T00:21:27.609Z,101128.28
2024-01-29T00:23:57.077Z,101116.25
2024-01-29T00:26:24.953Z,101111.41
2024-01-29T00:28:52.529Z,101121.09
2024-01-29T00:31:21.998Z,101127.25
2024-01-29T00:33:50.022Z,101118.72
2024-01-29T00:36:17.746Z,101113.47
2024-01-29T00:38:47.230Z,101116.19
2024-01-29T00:41:14.931Z,101125.59
2024-01-29T00:43:42.572Z,101125.50
2024-01-29T00:46:10.186Z,101119.97
2024-01-29T00:48:38.081Z,101121.59
2024-01-29T00:51:05.720Z,101114.81
2024-01-29T00:53:33.326Z,101125.22
2024-01-29T00:56:02.247Z,101116.66
2024-01-29T00:58:29.996Z,101115.09
2024-01-29T01:00:57.668Z,101125.22
2024-01-29T01:03:25.715Z,101122.50
2024-01-29T01:05:53.462Z,101124.38
2024-01-29T01:08:21.248Z,101119.84
2024-01-29T01:10:48.954Z,101115.25
2024-01-29T01:13:17.985Z,101109.31
2024-01-29T01:15:45.738Z,101122.03
2024-01-29T01:18:13.697Z,101116.66
2024-01-29T01:20:41.392Z,101116.56
2024-01-29T01:23:09.058Z,101120.47
2024-01-29T01:25:36.639Z,101119.81
2024-01-29T01:28:04.772Z,101107.31
2024-01-29T01:30:33.843Z,101128.16
2024-01-29T01:33:01.557Z,101123.91
2024-01-29T01:35:29.206Z,101120.97
2024-01-29T01:37:56.901Z,101119.81
2024-01-29T01:40:25.043Z,101123.00
2024-01-29T01:42:52.881Z,101115.72
2024-01-29T01:45:20.609Z,101123.22
2024-01-29T01:47:49.629Z,101121.84
2024-01-29T01:50:17.751Z,101115.88
2024-01-29T01:52:45.622Z,101109.56
2024-01-29T01:55:13.551Z,101120.06
2024-01-29T01:57:42.041Z,101112.78
2024-01-29T02:00:12.469Z,101123.09
2024-01-29T02:02:40.877Z,101128.19
2024-01-29T02:05:10.436Z,101125.16
2024-01-29T02:07:38.214Z,101122.59
2024-01-29T02:10:06.786Z,101114.72
2024-01-29T02:12:34.560Z,101125.09
2024-01-29T02:15:02.277Z,101118.13
2024-01-29T02:17:29.939Z,101120.59
2024-01-29T02:19:57.944Z,101122.47
2024-01-29T02:22:26.994Z,101115.69
2024-01-29T02:24:55.984Z,101124.41
2024-01-29T02:27:23.662Z,101120.25
2024-01-29T02:29:51.482Z,101121.97
2024-01-29T02:32:19.118Z,101113.59
2024-01-29T02:34:46.877Z,101114.47
2024-01-29T02:37:14.757Z,101113.41
2024-01-29T02:39:42.398Z,101122.69
2024-01-29T02:42:11.395Z,101118.47
2024-01-29T02:44:38.985Z,101109.94
2024-01-29T02:47:06.681Z,101117.72
2024-01-29T02:49:35.468Z,101115.22
2024-01-29T02:52:03.335Z,101122.38
2024-01-29T02:54:31.081Z,101118.63
2024-01-29T02:56:58.774Z,101118.09
2024-01-29T02:59:27.751Z,101112.19
2024-01-29T03:01:55.577Z,101110.13
2024-01-29T03:04:23.850Z,101105.19
2024-01-29T03:06:51.637Z,101086.09
2024-01-29T03:09:19.262Z,101110.16
2024-01-29T03:11:46.886Z,101104.56
2024-01-29T03:14:14.652Z,101108.34
2024-01-29T03:16:43.615Z,101108.66
2024-01-29T03:19:11.363Z,101106.91
2024-01-29T03:21:39.448Z,101112.22
2024-01-29T03:24:07.340Z,101118.59
2024-01-29T03:26:35.000Z,101112.34
2024-01-29T03:29:02.606Z,101120.53
2024-01-29T03:31:30.320Z,101113.91
2024-01-29T03:33:59.709Z,101122.38
2024-01-29T03:36:27.616Z,101116.69
2024-01-29T03:38:55.386Z,101115.69
2024-01-29T03:41:22.990Z,101119.84
2024-01-29T03:43:50.602Z,101114.63
2024-01-29T03:46:18.203Z,101110.53
2024-01-29T03:48:45.934Z,101111.22
2024-01-29T03:51:15.013Z,101107.66
2024-01-29T03:53:42.664Z,101108.13
2024-01-29T03:56:10.496Z,101106.00
2024-01-29T03:58:38.140Z,101114.22
2024-01-29T04:01:05.809Z,101113.44
2024-01-29T04:03:33.640Z,101121.00
2024-01-29T04:06:01.483Z,101116.69
2024-01-29T04:08:30.483Z,101113.19
2024-01-29T04:10:58.253Z,101114.66
2024-01-29T04:13:25.973Z,101116.38
2024-01-29T04:15:54.568Z,101111.22
2024-01-29T04:18:22.678Z,101118.91
2024-01-29T04:20:50.953Z,101126.16
2024-01-29T04:23:18.800Z,101118.06
2024-01-29T04:25:47.831Z,101119.63
2024-01-29T04:28:15.438Z,101115.66
2024-01-29T04:30:43.786Z,101114.00
2024-01-29T04:33:11.492Z,101112.78
2024-01-29T04:35:39.212Z,101118.81
2024-01-29T04:38:07.245Z,101110.34
2024-01-29T04:40:39.995Z,101117.06
2024-01-29T04:43:09.150Z,101106.84
2024-01-29T04:45:36.976Z,101101.91
2024-01-29T04:48:05.078Z,101116.91
2024-01-29T04:50:32.770Z,101113.25
2024-01-29T04:53:00.443Z,101113.03
2024-01-29T04:55:28.225Z,101129.06
2024-01-29T04:57:56.046Z,101116.06
2024-01-29T05:00:25.300Z,101110.13
2024-01-29T05:02:53.312Z,101121.06
2024-01-29T05:05:21.063Z,101117.41
2024-01-29T05:07:48.824Z,101121.88
2024-01-29T05:10:16.795Z,101119.06
2024-01-29T05:12:44.474Z,101124.47
2024-01-29T05:15:13.071Z,101122.47
2024-01-29T05:17:42.142Z,101126.63
2024-01-29T05:20:10.900Z,101121.34
2024-01-29T05:22:38.615Z,101128.09
2024-01-29T05:25:06.659Z,101131.16
2024-01-29T05:27:34.369Z,101120.34
2024-01-29T05:30:02.553Z,101120.63
2024-01-29T05:32:30.468Z,101131.94
2024-01-29T05:35:00.255Z,101134.38
2024-01-29T05:37:28.054Z,101132.78
2024-01-29T05:39:55.758Z,101137.22
2024-01-29T05:42:23.594Z,101142.44
2024-01-29T05:44:51.978Z,101139.81
2024-01-29T05:47:19.950Z,101149.66
2024-01-29T05:49:47.852Z,101147.22
2024-01-29T05:52:16.809Z,101146.34
2024-01-29T05:54:44.689Z,101146.56
2024-01-29T05:57:12.841Z,101137.31
2024-01-29T05:59:40.775Z,101152.75
2024-01-29T06:02:08.736Z,101159.41
2024-01-29T06:04:36.659Z,101150.31
2024-01-29T06:07:04.715Z,101144.66
2024-01-29T06:09:33.768Z,101147.88
2024-01-29T06:12:01.467Z,101156.97
2024-01-29T06:14:29.384Z,101150.97
2024-01-29T06:16:57.488Z,101149.53
2024-01-29T06:19:25.509Z,101144.97
2024-01-29T06:21:53.433Z,101143.47
2024-01-29T06:24:21.185Z,101153.50
2024-01-29T06:26:50.213Z,101157.03
2024-01-29T06:29:17.897Z,101152.16
2024-01-29T06:31:45.545Z,101149.00
2024-01-29T06:34:13.299Z,101145.00
2024-01-29T06:36:41.016Z,101145.00
2024-01-29T06:39:09.443Z,101153.25
2024-01-29T06:41:37.205Z,101155.59
2024-01-29T06:44:06.310Z,101150.97
2024-01-29T06:46:34.104Z,101154.97
2024-01-29T06:49:01.865Z,101160.03
2024-01-29T06:51:29.614Z,101154.66
2024-01-29T06:53:58.626Z,101157.66
2024-01-29T06:56:26.318Z,101155.88
2024-01-29T06:58:54.195Z,101160.56
2024-01-29T07:01:23.404Z,101167.28
2024-01-29T07:03:51.271Z,101162.63
2024-01-29T07:06:19.893Z,101161.06
2024-01-29T07:08:47.878Z,101166.44
2024-01-29T07:11:16.117Z,101175.25
2024-01-29T07:13:43.718Z,101173.16
2024-01-29T07:16:11.564Z,101168.81
2024-01-29T07:18:40.666Z,101181.19
2024-01-29T07:21:08.483Z,101177.44
2024-01-29T07:23:36.080Z,101178.66
2024-01-29T07:26:03.738Z,101181.97
2024-01-29T07:28:32.650Z,101189.91
2024-01-29T07:31:00.393Z,101185.56
2024-01-29T07:33:28.221Z,101193.13
2024-01-29T07:35:57.241Z,101198.06
2024-01-29T07:38:24.871Z,101197.66
2024-01-29T07:40:52.519Z,101202.09
2024-01-29T07:43:20.316Z,101203.22
2024-01-29T07:45:47.943Z,101202.94
2024-01-29T07:48:15.784Z,101209.66
2024-01-29T07:50:43.445Z,101209.25
2024-01-29T07:53:12.441Z,101217.94
2024-01-29T07:55:40.034Z,101209.00
2024-01-29T07:58:09.685Z,101207.06
2024-01-29T08:00:37.409Z,101214.38
2024-01-29T08:03:07.289Z,101216.88
2024-01-29T08:05:34.944Z,101216.13
2024-01-29T08:08:02.728Z,101214.31
2024-01-29T08:10:31.665Z,101222.44
2024-01-29T08:12:59.329Z,101219.50
2024-01-29T08:15:29.626Z,101218.13
2024-01-29T08:17:57.682Z,101218.09
2024-01-29T08:20:26.833Z,101238.03
2024-01-29T08:22:54.874Z,101229.88
2024-01-29T08:25:22.638Z,101236.81
2024-01-29T08:27:51.661Z,101240.00
2024-01-29T08:30:19.731Z,101232.19
2024-01-29T08:32:47.366Z,101226.41
2024-01-29T08:35:15.381Z,101233.28
2024-01-29T08:37:43.193Z,101240.94
2024-01-29T08:40:11.691Z,101231.06
2024-01-29T08:42:39.469Z,101229.72
2024-01-29T08:45:08.981Z,101233.88
2024-01-29T08:47:36.678Z,101234.25
2024-01-29T08:50:04.775Z,101229.44
2024-01-29T08:52:32.533Z,101230.41
2024-01-29T08:55:00.564Z,101238.38
2024-01-29T08:57:29.765Z,101236.28
2024-01-29T08:59:57.368Z,101239.38
2024-01-29T09:02:28.858Z,101247.56
2024-01-29T09:04:56.593Z,101245.69
2024-01-29T09:07:24.692Z,101242.06
2024-01-29T09:09:52.361Z,101251.19
2024-01-29T09:12:20.011Z,101247.13
2024-01-29T09:14:47.723Z,101255.19
2024-01-29T09:17:15.356Z,101255.47
2024-01-29T09:19:46.398Z,101245.59
2024-01-29T09:22:14.358Z,101243.47
2024-01-29T09:24:42.339Z,101246.97
2024-01-29T09:27:10.024Z,101250.31
2024-01-29T09:29:37.673Z,101237.31
2024-01-29T09:32:05.891Z,101249.88
2024-01-29T09:34:34.206Z,101256.78
2024-01-29T09:37:03.281Z,101251.47
2024-01-29T09:39:31.066Z,101244.03
2024-01-29T09:42:04.920Z,101247.50
2024-01-29T09:44:38.809Z,101247.28
2024-01-29T09:47:07.668Z,101244.59
2024-01-29T09:49:36.493Z,101249.53
2024-01-29T09:52:06.665Z,101246.06
2024-01-29T09:54:36.065Z,101249.28
2024-01-29T09:57:03.940Z,101248.91
2024-01-29T09:59:31.730Z,101250.91
2024-01-29T10:02:02.373Z,101242.03
2024-01-29T10:04:30.355Z,101261.38
2024-01-29T10:06:58.576Z,101258.16
2024-01-29T10:09:27.656Z,101253.13
2024-01-29T10:11:55.280Z,101261.56
2024-01-29T10:14:23.028Z,101260.72
2024-01-29T10:16:52.186Z,101257.78
2024-01-29T10:19:20.200Z,101257.03
2024-01-29T10:21:48.487Z,101263.56
2024-01-29T10:24:17.547Z,101267.59
2024-01-29T10:26:47.544Z,101259.72
2024-01-29T10:29:17.402Z,101248.00
2024-01-29T10:31:45.282Z,101243.88
2024-01-29T10:34:13.201Z,101237.91
2024-01-29T10:36:41.786Z,101235.16
2024-01-29T10:39:14.236Z,101241.69
2024-01-29T10:41:48.244Z,101235.38
2024-01-29T10:44:18.713Z,101237.44
2024-01-29T10:46:49.010Z,101232.41
2024-01-29T10:49:17.583Z,101242.97
2024-01-29T10:51:47.324Z,101245.50
2024-01-29T10:54:15.524Z,101245.75
2024-01-29T10:56:44.131Z,101241.41
2024-01-29T10:59:14.095Z,101240.16
2024-01-29T11:01:52.115Z,101235.38
2024-01-29T11:04:26.205Z,101231.09
2024-01-29T11:06:58.255Z,101229.31
2024-01-29T11:09:30.041Z,101215.75
2024-01-29T11:11:58.134Z,101219.44
2024-01-29T11:14:27.355Z,101216.41
2024-01-29T11:16:55.058Z,101213.19
2024-01-29T11:19:23.158Z,101216.53
2024-01-29T11:21:51.520Z,101207.94
2024-01-29T11:24:23.286Z,101206.16
2024-01-29T11:26:53.197Z,101210.72
2024-01-29T11:29:23.650Z,101206.25
2024-01-29T11:31:55.031Z,101190.69
2024-01-29T11:34:28.003Z,101191.25
2024-01-29T11:36:56.354Z,101175.47
2024-01-29T11:39:25.954Z,101182.81
2024-01-29T11:41:54.555Z,101182.22
2024-01-29T11:44:23.420Z,101181.84
2024-01-29T11:46:53.148Z,101170.50
2024-01-29T11:49:27.677Z,101177.53
2024-01-29T11:51:56.057Z,101172.16
2024-01-29T11:54:26.706Z,101163.66
2024-01-29T11:56:54.527Z,101166.78
2024-01-29T11:59:22.351Z,101157.69
2024-01-29T12:01:52.269Z,101166.50
2024-01-29T12:04:21.821Z,101167.50
2024-01-29T12:06:54.391Z,101163.91
2024-01-29T12:09:22.186Z,101164.50
2024-01-29T12:11:49.770Z,101164.25
2024-01-29T12:14:17.362Z,101160.88
2024-01-29T12:16:45.489Z,101156.16
2024-01-29T12:19:13.200Z,101151.75
2024-01-29T12:21:43.225Z,101151.44
2024-01-29T12:24:11.476Z,101145.13
2024-01-29T12:26:40.338Z,101131.09
2024-01-29T12:29:09.008Z,101133.97
2024-01-29T12:31:39.537Z,101134.66
2024-01-29T12:34:09.010Z,101131.94
2024-01-29T12:36:37.139Z,101132.59
2024-01-29T12:39:12.540Z,101123.66
2024-01-29T12:41:41.706Z,101116.44
2024-01-29T12:44:13.422Z,101112.28
2024-01-29T12:46:41.868Z,101116.84
2024-01-29T12:49:09.680Z,101115.19
2024-01-29T12:51:37.501Z,101116.44
2024-01-29T12:54:07.715Z,101117.53
2024-01-29T12:56:35.341Z,101106.88
2024-01-29T12:59:07.466Z,101106.81
2024-01-29T13:01:35.961Z,101103.03
2024-01-29T13:04:04.162Z,101103.31
2024-01-29T13:06:32.286Z,101107.03
2024-01-29T13:09:00.022Z,101111.75
2024-01-29T13:11:29.216Z,101109.00
2024-01-29T13:13:57.113Z,101102.09
2024-01-29T13:16:26.150Z,101097.88
2024-01-29T13:18:54.242Z,101105.50
2024-01-29T13:21:22.360Z,101095.03
2024-01-29T13:23:50.147Z,101099.56
2024-01-29T13:26:19.382Z,101097.13
2024-01-29T13:28:48.680Z,101086.44
2024-01-29T13:31:16.514Z,101091.41
2024-01-29T13:33:44.379Z,101079.84
2024-01-29T13:36:12.272Z,101078.44
2024-01-29T13:38:40.044Z,101079.91
2024-01-29T13:41:10.044Z,101077.22
2024-01-29T13:43:37.728Z,101075.00
2024-01-29T13:46:06.968Z,101075.69
2024-01-29T13:48:34.689Z,101076.09
2024-01-29T13:51:02.517Z,101082.09
2024-01-29T13:53:30.205Z,101076.66
2024-01-29T13:55:57.943Z,101066.72
2024-01-29T13:58:26.682Z,101058.22
2024-01-29T14:00:54.563Z,101070.44
2024-01-29T14:03:23.654Z,101075.78
2024-01-29T14:05:51.429Z,101064.00
2024-01-29T14:08:19.337Z,101086.41
2024-01-29T14:10:47.019Z,101075.28
2024-01-29T14:13:17.239Z,101069.31
2024-01-29T14:15:45.053Z,101070.16
2024-01-29T14:18:12.677Z,101078.47
2024-01-29T14:20:41.694Z,101066.75
2024-01-29T14:23:10.351Z,101063.13
2024-01-29T14:25:38.011Z,101072.69
2024-01-29T14:28:06.393Z,101070.06
2024-01-29T14:30:34.209Z,101071.63
2024-01-29T14:33:02.003Z,101068.16
2024-01-29T14:35:29.743Z,101060.88
2024-01-29T14:37:58.850Z,101075.59
2024-01-29T14:40:26.465Z,101062.91
2024-01-29T14:42:54.183Z,101065.88
2024-01-29T14:45:21.826Z,101065.16
2024-01-29T14:47:50.482Z,101070.50
2024-01-29T14:50:18.418Z,101067.41
2024-01-29T14:52:46.101Z,101059.91
2024-01-29T14:55:15.260Z,101064.78
2024-01-29T14:57:42.992Z,101066.88
2024-01-29T15:00:12.508Z,101060.47
2024-01-29T15:02:40.156Z,101057.56
2024-01-29T15:05:10.195Z,101057.34
2024-01-29T15:07:38.046Z,101062.97
2024-01-29T15:10:09.219Z,101068.31
2024-01-29T15:12:39.985Z,101063.28
2024-01-29T15:15:08.587Z,101065.78
2024-01-29T15:17:36.541Z,101068.59
2024-01-29T15:20:07.391Z,101067.53
2024-01-29T15:22:35.136Z,101068.19
2024-01-29T15:25:04.451Z,101073.94
2024-01-29T15:27:32.410Z,101071.59
2024-01-29T15:30:02.101Z,101075.47
2024-01-29T15:32:29.814Z,101067.50
2024-01-29T15:34:57.617Z,101077.75
2024-01-29T15:37:25.353Z,101090.09
2024-01-29T15:39:53.081Z,101081.22
2024-01-29T15:42:20.798Z,101087.16
2024-01-29T15:44:48.474Z,101087.34
2024-01-29T15:47:17.974Z,101091.19
2024-01-29T15:49:45.633Z,101087.63
2024-01-29T15:52:13.403Z,101089.69
2024-01-29T15:54:41.290Z,101097.50
2024-01-29T15:57:09.075Z,101095.06
2024-01-29T15:59:37.483Z,101094.44
2024-01-29T16:02:07.617Z,101094.19
2024-01-29T16:04:39.822Z,101088.19
2024-01-29T16:07:08.440Z,101091.41
2024-01-29T16:09:36.164Z,101101.47
2024-01-29T16:12:04.165Z,101098.88
2024-01-29T16:14:31.869Z,101102.09
2024-01-29T16:16:59.646Z,101095.03
2024-01-29T16:19:27.617Z,101099.41
2024-01-29T16:21:57.678Z,101099.97
2024-01-29T16:24:25.989Z,101102.00
2024-01-29T16:26:53.833Z,101095.03
2024-01-29T16:29:21.517Z,101100.88
2024-01-29T16:31:53.543Z,101103.13
2024-01-29T16:34:21.610Z,101095.41
2024-01-29T16:36:49.540Z,101104.41
2024-01-29T16:39:18.705Z,101103.56
2024-01-29T16:41:46.312Z,101102.91
2024-01-29T16:44:15.331Z,101114.66
2024-01-29T16:46:43.368Z,101109.34
2024-01-29T16:49:11.262Z,101115.31
2024-01-29T16:51:39.036Z,101116.81
2024-01-29T16:54:06.742Z,101108.94
2024-01-29T16:56:37.535Z,101115.22
2024-01-29T16:59:08.604Z,101117.91
2024-01-29T17:01:36.490Z,101113.63
2024-01-29T17:04:04.817Z,101123.63
2024-01-29T17:06:32.946Z,101120.72
2024-01-29T17:09:00.928Z,101106.78
2024-01-29T17:11:28.680Z,101111.81
2024-01-29T17:13:57.740Z,101108.16
2024-01-29T17:16:25.559Z,101110.50
2024-01-29T17:18:53.268Z,101111.09
2024-01-29T17:21:21.631Z,101119.78
2024-01-29T17:23:49.730Z,101121.47
2024-01-29T17:26:17.501Z,101118.72
2024-01-29T17:28:46.129Z,101103.66
2024-01-29T17:31:15.194Z,101120.97
2024-01-29T17:33:43.093Z,101123.59
2024-01-29T17:36:11.355Z,101117.94
2024-01-29T17:38:39.219Z,101116.03
2024-01-29T17:41:06.874Z,101125.22
2024-01-29T17:43:34.678Z,101115.81
2024-01-29T17:46:02.339Z,101126.38
2024-01-29T17:48:31.698Z,101112.31
2024-01-29T17:50:59.397Z,101121.78
2024-01-29T17:53:29.794Z,101115.22
2024-01-29T17:55:57.896Z,101122.22
2024-01-29T17:58:25.592Z,101125.75
2024-01-29T18:00:53.460Z,101125.97
2024-01-29T18:03:23.742Z,101122.72
2024-01-29T18:05:52.862Z,101127.00
2024-01-29T18:08:21.352Z,101128.59
2024-01-29T18:10:49.172Z,101135.84
2024-01-29T18:13:16.899Z,101134.97
2024-01-29T18:15:44.699Z,101137.88
2024-01-29T18:18:12.390Z,101137.75
2024-01-29T18:20:40.110Z,101141.53
2024-01-29T18:23:10.927Z,101137.09
2024-01-29T18:25:40.214Z,101140.31
2024-01-29T18:28:08.239Z,101134.72
2024-01-29T18:30:35.941Z,101134.72
2024-01-29T18:33:04.453Z,101137.09
2024-01-29T18:35:32.277Z,101130.94
2024-01-29T18:37:59.927Z,101134.56
2024-01-29T18:40:33.853Z,101127.84
2024-01-29T18:43:01.897Z,101136.94
2024-01-29T18:45:29.641Z,101137.22
2024-01-29T18:47:57.442Z,101137.66
2024-01-29T18:50:25.293Z,101130.31
2024-01-29T18:52:53.014Z,101141.28
2024-01-29T18:55:20.678Z,101136.38
2024-01-29T18:57:49.818Z,101132.69
2024-01-29T19:00:18.691Z,101140.75
2024-01-29T19:02:46.383Z,101141.88
2024-01-29T19:05:14.712Z,101143.28
2024-01-29T19:07:48.257Z,101141.66
2024-01-29T19:10:16.499Z,101141.72
2024-01-29T19:12:44.345Z,101148.72
2024-01-29T19:15:13.405Z,101149.94
2024-01-29T19:17:41.057Z,101147.75
2024-01-29T19:20:10.203Z,101145.44
2024-01-29T19:22:37.924Z,101149.63
2024-01-29T19:25:06.916Z,101150.19
2024-01-29T19:27:34.696Z,101155.50
2024-01-29T19:30:02.383Z,101149.41
2024-01-29T19:32:31.483Z,101148.44
2024-01-29T19:34:59.308Z,101146.53
2024-01-29T19:37:30.492Z,101152.22
2024-01-29T19:40:02.288Z,101153.31
2024-01-29T19:42:30.125Z,101157.13
2024-01-29T19:44:57.839Z,101151.81
2024-01-29T19:47:25.518Z,101155.28
2024-01-29T19:49:57.472Z,101161.88
2024-01-29T19:52:26.067Z,101156.44
2024-01-29T19:54:53.783Z,101155.91
2024-01-29T19:57:22.180Z,101162.91
2024-01-29T19:59:49.787Z,101163.69
2024-01-29T20:02:17.423Z,101167.75
2024-01-29T20:04:45.234Z,101168.59
2024-01-29T20:07:14.373Z,101164.25
2024-01-29T20:09:42.107Z,101157.22
2024-01-29T20:12:09.924Z,101169.16
2024-01-29T20:14:38.993Z,101169.75
2024-01-29T20:17:06.638Z,101173.47
2024-01-29T20:19:34.434Z,101169.56
2024-01-29T20:22:02.335Z,101180.91
2024-01-29T20:24:31.523Z,101179.72
2024-01-29T20:26:59.188Z,101165.78
2024-01-29T20:29:27.390Z,101174.59
2024-01-29T20:31:55.559Z,101169.44
2024-01-29T20:34:23.311Z,101163.13
2024-01-29T20:36:51.122Z,101169.44
2024-01-29T20:39:18.909Z,101169.25
2024-01-29T20:41:49.901Z,101166.06
2024-01-29T20:44:17.559Z,101163.84
2024-01-29T20:46:47.338Z,101166.84
2024-01-29T20:49:16.071Z,101157.72
2024-01-29T20:51:43.908Z,101151.31
2024-01-29T20:54:11.905Z,101156.72
2024-01-29T20:56:40.231Z,101156.94
2024-01-29T20:59:09.485Z,101155.53
2024-01-29T21:01:37.331Z,101166.03
2024-01-29T21:04:05.299Z,101161.38
2024-01-29T21:06:33.654Z,101163.00
2024-01-29T21:09:01.382Z,101165.72
2024-01-29T21:11:28.987Z,101160.50
2024-01-29T21:13:56.713Z,101161.22
2024-01-29T21:16:28.451Z,101161.88
2024-01-29T21:18:58.627Z,101160.13
2024-01-29T21:21:28.997Z,101150.28
2024-01-29T21:23:56.652Z,101161.88
2024-01-29T21:26:28.131Z,101161.09
2024-01-29T21:28:56.041Z,101154.78
2024-01-29T21:31:25.227Z,101149.44
2024-01-29T21:33:53.092Z,101164.13
2024-01-29T21:36:21.863Z,101154.91
2024-01-29T21:38:49.504Z,101149.06
2024-01-29T21:41:17.109Z,101153.28
2024-01-29T21:43:44.781Z,101155.31
2024-01-29T21:46:12.586Z,101155.97
2024-01-29T21:48:41.877Z,101149.00
2024-01-29T21:51:09.757Z,101147.28
2024-01-29T21:53:37.860Z,101159.81
2024-01-29T21:56:06.152Z,101156.72
2024-01-29T21:58:33.772Z,101152.50
2024-01-29T22:01:01.485Z,101151.44
2024-01-29T22:03:29.251Z,101149.94
2024-01-29T22:05:58.277Z,101156.53
2024-01-29T22:08:28.259Z,101157.03
2024-01-29T22:10:56.209Z,101155.06
2024-01-29T22:13:23.997Z,101156.88
2024-01-29T22:15:51.717Z,101158.94
2024-01-29T22:18:19.365Z,101161.50
2024-01-29T22:20:47.048Z,101150.53
2024-01-29T22:23:16.021Z,101164.66
2024-01-29T22:25:43.662Z,101167.56
2024-01-29T22:28:11.320Z,101163.19
2024-01-29T22:30:39.042Z,101162.47
2024-01-29T22:33:07.912Z,101168.81
2024-01-29T22:35:35.637Z,101171.31
2024-01-29T22:38:03.413Z,101169.56
2024-01-29T22:40:32.396Z,101173.41
2024-01-29T22:43:00.119Z,101170.00
2024-01-29T22:45:27.991Z,101170.31
2024-01-29T22:47:55.793Z,101181.47
2024-01-29T22:50:23.473Z,101189.94
2024-01-29T22:52:51.157Z,101183.78
2024-01-29T22:55:19.101Z,101188.25
2024-01-29T22:57:48.171Z,101196.28
2024-01-29T23:00:22.675Z,101189.16
2024-01-29T23:02:50.399Z,101190.78
2024-01-29T23:05:18.350Z,101190.50
2024-01-29T23:07:46.536Z,101189.16
2024-01-29T23:10:14.803Z,101196.75
2024-01-29T23:12:42.532Z,101184.41
2024-01-29T23:15:12.561Z,101192.81
2024-01-29T23:17:40.236Z,101187.13
2024-01-29T23:20:11.393Z,101194.31
2024-01-29T23:22:39.208Z,101193.19
2024-01-29T23:25:07.509Z,101192.44
2024-01-29T23:27:36.942Z,101182.22
2024-01-29T23:30:06.509Z,101190.09
2024-01-29T23:32:35.534Z,101181.19
2024-01-29T23:35:03.196Z,101195.72
2024-01-29T23:37:30.872Z,101183.66
2024-01-29T23:39:58.696Z,101193.97
2024-01-29T23:42:26.399Z,101185.44
2024-01-29T23:44:54.120Z,101186.66
2024-01-29T23:47:21.729Z,101191.16
2024-01-29T23:49:50.801Z,101184.31
2024-01-29T23:52:26.804Z,101197.66
2024-01-29T23:54:54.673Z,101188.97
2024-01-29T23:57:22.427Z,101195.22
2024-01-29T23:59:51.560Z,101190.31
